Historyczne dane pomiarowe

Dodano dane terminowe – wersja testowa.

Dane z okresu 1951-2019

Wersja bazy: 1.34 [2019-03-16, lista zmian], aktualizacja planowana na 2019-04-15

Dane meteo z obszaru Polski uzyskane na podstawie danych udostępnionych przez Instytut Meteorologii i Gospodarki Wodnej – Państwowy Instytut Badawczy.

 

Wybierz Datę:    

       

TemperaturaWilgotnośćWiatrCiśnienieOpadyŚniegCzas trwania zjawisk
 Stacja t tx tn tng RH VA  wxwx mslp ppp RRR   cm mm wxwxwxwxwxwxwx
1983-08-14 12.3 14.6 9.7 4.8 81.3- 6.3 2.7---- 0.6------------
1983-08-13 15.0 19.4 10.6 7.1 76.0- 8.0 2.7---- 10.6------------
1983-08-12 18.2 22.7 15.3 10.5 80.8- 6.3 1.3---- 0.9------------
1983-08-11 16.6 19.2 14.5 9.4 93.8- 8.0 2.0---- 9.9------------
1983-08-10 16.3 21.2 13.5 7.3 90.0- 8.0 1.3---- 9.3------------
1983-08-09 16.1 21.9 12.9 7.7 89.5- 7.3 2.3---- 0.2------------
1983-08-08 16.5 20.2 14.0 6.3 90.3- 8.0 2.0---- 1.5------------
1983-08-07 15.1 18.4 12.5 8.2 96.0- 8.0 0.3---- 10.7------------
1983-08-06 14.5 18.4 10.9 5.4 78.3- 6.7 1.0---- 0.0------------
1983-08-05 11.1 13.2 8.9 5.1 88.5- 8.0 1.7---- 0.0------------
1983-08-04 12.1 21.2 10.0 7.7 94.0- 8.0 0.3---- 8.0------------
1983-08-03 19.1 23.7 16.1 10.4 85.5- 6.7 2.3---- 8.8------------
1983-08-02 22.0 28.0 18.2 7.5 56.5- 2.7 3.7---- 0.3------------
1983-08-01 19.4 24.4 14.2 4.9 57.3- 0.0 1.3---- 0.0------------
1983-07-31 16.6 19.7 11.8- 64.3- 2.3 0.3---- 0.0------------
1983-07-30 16.4 20.3 13.8- 78.0- 7.0 2.0---- 1.9------------
1983-07-29 19.5 22.2 15.6 8.8 66.0- 6.3 1.7---- 0.0------------
1983-07-28 22.5 24.6 21.0 11.1 60.5- 5.0 3.7---- 0.0------------
1983-07-27 21.7 26.1 17.3 11.0 67.8- 2.0 1.0---- 0.0------------
1983-07-26 17.6 22.8 14.1 8.7 73.3- 7.7 2.3---- 0.2------------
1983-07-25 13.5 17.2 10.0 6.5 88.0- 7.0 1.7---- 0.6------------
1983-07-24 14.2 16.6 12.5 8.3 90.3- 8.0 0.0---- 4.4------------
1983-07-23 14.6 18.2 11.7 6.7 83.5- 7.7 1.7---- 3.7------------
1983-07-22 12.1 13.6 9.8 4.2 76.8- 8.0 1.7---- 4.8------------
1983-07-21 10.9 14.5 6.6 2.5 79.0- 6.7 3.3---- 3.5------------
1983-07-20 18.2 25.1 11.7 8.2 79.3- 8.0 2.0---- 1.6------------
1983-07-19 23.7 27.6 18.8 8.2 54.5- 2.3 1.3---- 0.0------------
1983-07-18 21.9 25.6 16.6 7.7 60.3- 1.3 0.7---- 0.0------------
1983-07-17 21.0 24.4 17.6 8.7 66.8- 2.3 1.0---- 0.0------------
1983-07-16 20.6 25.0 15.7 6.5 54.5- 4.3 1.3---- 0.0------------
1983-07-15 17.2 21.2 14.8 7.5 71.8- 3.7 1.3---- 0.0------------
1983-07-14 15.5 19.2 14.5 9.7 90.8- 8.0 2.7---- 3.3------------
1983-07-13 15.1 17.3 13.9 9.2 93.3- 8.0 2.0---- 38.0------------
1983-07-12 16.2 19.5 14.7 9.4 90.3- 8.0 1.3---- 9.6------------
1983-07-11 17.6 21.6 14.1 8.0 83.5- 8.0 1.7---- 2.7------------
1983-07-10 20.2 24.4 15.8 8.3 65.5- 5.3 0.3---- 1.8------------
1983-07-09 19.6 23.7 13.4 5.2 61.3- 2.7 1.3---- 0.0------------
1983-07-08 19.3 22.7 13.9 4.8 54.8- 1.0 1.7---- 0.0------------
1983-07-07 20.6 24.1 17.2 7.1 59.3- 1.7 0.7---- 0.0------------
1983-07-06 20.2 23.9 15.6 7.3 63.3- 0.0 0.0---- 0.0------------
1983-07-05 20.4 24.2 14.8 6.3 61.5- 3.0 0.3---- 0.0------------
1983-07-04 18.2 22.3 12.5 4.8 60.0- 2.7 1.0---- 0.0------------
1983-07-03 16.9 20.6 13.1 10.8 77.8- 4.7 1.7---- 0.0------------
1983-07-02 17.3 20.2 15.8 9.1 85.3- 6.7 2.0---- 2.1------------
1983-07-01 19.3 24.1 15.1 7.8 70.5- 5.7 2.0---- 0.0------------
1983-06-30 15.2 20.0 8.6- 68.0- 2.0 1.0---- 0.0------------
1983-06-29 13.4 16.6 10.6- 72.3- 6.0 1.3---- 0.0------------
1983-06-28 16.1 21.4 13.8- 86.0- 8.0 2.3---- 21.0------------
1983-06-27 19.5 23.9 14.3- 78.5- 6.0 3.0---- 0.2------------
1983-06-26 18.2 22.2 16.1- 71.0- 8.0 1.0---- 14.9------------
1983-06-25 20.1 24.0 15.2- 54.8- 2.7 1.3---- 0.0------------
1983-06-24 17.3 22.8 11.6- 51.5- 2.0 1.0---- 0.0------------
1983-06-23 12.8 18.2 6.6- 57.8- 0.3 1.3---- 0.0------------
1983-06-22 13.9 19.7 10.0- 61.0- 0.0 4.0---- 0.0------------
1983-06-21 17.4 22.1 14.0- 77.8- 5.3 0.7---- 0.0------------
1983-06-20 15.7 19.2 13.5- 89.5- 7.0 0.7---- 0.0------------
1983-06-19 15.0 19.7 9.5- 91.8- 7.7 1.3---- 34.4------------
1983-06-18 10.5 11.4 9.0- 96.8- 8.0 2.0---- 43.0------------
1983-06-17 9.9 11.6 8.8- 89.8- 8.0 2.3---- 13.8------------
1983-06-16 10.4 15.1 8.3- 93.0- 8.0 2.7---- 23.6------------
284.5 ms

 

Źródłem pochodzenia danych jest Instytut Meteorologii i Gospodarki Wodnej – Państwowy Instytut Badawczy. Dane Instytutu Meteorologii i Gospodarki Wodnej – Państwowego Instytutu Badawczego zostały przetworzone.

Dane źródłowe można odnaleźć na stronie https://dane.imgw.pl